Time;durP1;ratioP1;P1;durP2;ratioP2;P2;SDS_P1;SDS_P2;PMS_P1;PMS_P2;Temp;Humidity;BMP_temperature;BMP_pressure;BME280_temperature;BME280_humidity;BME280_pressure;Samples;Min_cycle;Max_cycle;Signal;HPM_P1;HPM_P2
2021/12/18 00:01:42;;;;;;;21.27;14.70;;;;;;;3.28;100.00;100224.81;5110943;28;20210;-64
2021/12/18 00:04:09;;;;;;;23.40;14.70;;;;;;;3.30;100.00;100228.31;5107361;28;20258;-64
2021/12/18 00:06:35;;;;;;;21.97;14.70;;;;;;;3.35;100.00;100222.16;5108670;28;20206;-64
2021/12/18 00:09:04;;;;;;;22.07;14.87;;;;;;;3.39;100.00;100225.63;5109836;28;20239;-64
2021/12/18 00:11:31;;;;;;;21.43;14.97;;;;;;;3.40;100.00;100225.59;5110889;28;20206;-64
2021/12/18 00:13:58;;;;;;;21.07;14.17;;;;;;;3.40;100.00;100225.59;5107082;28;20219;-64
2021/12/18 00:16:24;;;;;;;21.57;14.10;;;;;;;3.46;100.00;100225.56;5109013;28;20684;-64
2021/12/18 00:18:52;;;;;;;21.03;14.50;;;;;;;3.43;100.00;100225.56;5110579;28;20214;-64
2021/12/18 00:21:20;;;;;;;21.93;14.00;;;;;;;3.45;100.00;100223.84;5110173;28;20226;-64
2021/12/18 00:23:47;;;;;;;21.47;14.63;;;;;;;3.50;100.00;100229.03;5107243;28;20628;-64
2021/12/18 00:26:15;;;;;;;21.70;14.50;;;;;;;3.52;100.00;100225.50;5109102;28;20206;-64
2021/12/18 00:28:42;;;;;;;21.77;14.43;;;;;;;3.54;100.00;100223.75;5110319;28;20242;-64
2021/12/18 00:31:08;;;;;;;22.43;14.57;;;;;;;3.50;100.00;100218.56;5110238;28;20210;-64
2021/12/18 00:33:35;;;;;;;21.83;14.60;;;;;;;3.50;100.00;100222.06;5105201;28;20703;-64
2021/12/18 00:36:02;;;;;;;21.57;13.43;;;;;;;3.53;100.00;100226.38;5108637;28;20218;-65
2021/12/18 00:38:30;;;;;;;22.20;14.53;;;;;;;3.48;100.00;100215.94;5110191;28;20294;-65
2021/12/18 00:41:12;;;;;;;20.77;13.43;;;;;;;3.49;100.00;100215.06;5109928;28;20252;-65
2021/12/18 00:44:01;;;;;;;21.83;14.37;;;;;;;3.56;100.00;100224.59;5108698;28;20214;-64
2021/12/18 00:46:28;;;;;;;21.90;14.80;;;;;;;3.61;100.00;100219.34;5112111;28;20699;-65
2021/12/18 00:48:55;;;;;;;22.43;15.13;;;;;;;3.60;100.00;100218.47;5109801;28;20242;-64
2021/12/18 00:51:21;;;;;;;22.67;14.93;;;;;;;3.63;100.00;100217.56;5112293;28;20210;-64
2021/12/18 00:53:48;;;;;;;23.60;15.40;;;;;;;3.62;100.00;100227.16;5111968;28;20221;-64
2021/12/18 00:56:14;;;;;;;21.93;14.73;;;;;;;3.63;100.00;100228.03;5112369;28;20217;-64
2021/12/18 00:58:43;;;;;;;21.63;14.97;;;;;;;3.57;100.00;100228.09;5108389;28;20218;-64
2021/12/18 01:01:10;;;;;;;21.37;15.07;;;;;;;3.57;100.00;100226.34;5111677;28;20215;-64
2021/12/18 01:03:38;;;;;;;22.67;14.90;;;;;;;3.54;100.00;100228.13;5110974;28;20267;-64
2021/12/18 01:06:05;;;;;;;21.00;14.43;;;;;;;3.51;100.00;100220.28;5109875;28;20263;-64
2021/12/18 01:08:32;;;;;;;21.10;14.10;;;;;;;3.47;100.00;100222.06;5107624;28;20708;-64
2021/12/18 01:11:16;;;;;;;21.87;14.53;;;;;;;3.46;100.00;100229.91;5106338;28;20211;-64
2021/12/18 01:13:57;;;;;;;22.43;15.07;;;;;;;3.39;100.00;100226.50;5107086;28;20210;-64
2021/12/18 01:16:24;;;;;;;22.07;14.33;;;;;;;3.37;100.00;100228.22;5109506;28;20293;-64
2021/12/18 01:24:25;;;;;;;22.63;15.17;;;;;;;3.47;100.00;100222.06;5067521;28;20239;-64
2021/12/18 01:26:51;;;;;;;22.97;15.53;;;;;;;3.43;100.00;100225.56;5105525;28;20589;-64
2021/12/18 01:29:19;;;;;;;22.47;14.93;;;;;;;3.41;100.00;100222.13;5108979;28;20261;-64
2021/12/18 01:31:45;;;;;;;22.90;15.33;;;;;;;3.35;100.00;100227.38;5109278;28;20210;-64
2021/12/18 01:34:12;;;;;;;24.30;15.47;;;;;;;3.37;100.00;100238.69;5108910;28;20218;-64
2021/12/18 01:36:38;;;;;;;23.00;15.37;;;;;;;3.36;100.00;100239.56;5104997;28;20673;-65
2021/12/18 01:39:05;;;;;;;26.17;16.70;;;;;;;3.34;100.00;100230.88;5108431;28;20210;-64
2021/12/18 01:41:41;;;;;;;21.20;14.70;;;;;;;3.32;100.00;100237.88;5109117;28;20214;-64
2021/12/18 01:47:07;;;;;;;21.73;15.10;;;;;;;3.35;100.00;100230.00;5107195;28;20221;-64
2021/12/18 01:52:22;;;;;;;22.47;15.37;;;;;;;3.44;100.00;100237.78;5109857;28;20695;-64
2021/12/18 01:54:49;;;;;;;21.30;14.27;;;;;;;3.37;100.00;100241.31;5107995;28;20214;-64
2021/12/18 01:57:15;;;;;;;22.30;14.90;;;;;;;3.36;100.00;100241.34;5108522;28;20217;-64
2021/12/18 01:59:47;;;;;;;23.07;15.30;;;;;;;3.27;100.00;100239.66;5106758;28;20226;-64
2021/12/18 02:02:15;;;;;;;23.03;14.80;;;;;;;3.21;100.00;100239.69;5106559;27;20219;-64
2021/12/18 02:04:42;;;;;;;21.87;14.83;;;;;;;3.23;100.00;100247.50;5111560;27;20210;-64
2021/12/18 02:07:08;;;;;;;25.07;15.43;;;;;;;3.17;100.00;100243.19;5111563;27;20217;-64
2021/12/18 02:09:54;;;;;;;22.80;15.10;;;;;;;3.21;100.00;100242.31;5111150;27;20718;-64
2021/12/18 02:12:25;;;;;;;25.63;15.63;;;;;;;3.22;100.00;100241.41;5109373;28;20225;-64
2021/12/18 02:20:40;;;;;;;23.80;15.30;;;;;;;3.21;100.00;100226.63;5099895;28;20213;-64
2021/12/18 02:23:06;;;;;;;19.63;13.57;;;;;;;3.14;100.00;100227.53;5108377;28;20706;-64
2021/12/18 02:25:36;;;;;;;22.20;14.23;;;;;;;3.14;100.00;100222.31;5105925;28;20300;-64
2021/12/18 02:28:06;;;;;;;21.93;13.83;;;;;;;3.22;100.00;100224.84;5110113;28;20307;-64
2021/12/18 02:30:33;;;;;;;23.03;14.10;;;;;;;3.22;100.00;100228.34;5110639;28;20665;-64
2021/12/18 02:33:00;;;;;;;22.90;14.67;;;;;;;3.23;100.00;100227.47;5109254;28;20568;-64
2021/12/18 02:35:29;;;;;;;25.47;15.37;;;;;;;3.21;100.00;100229.25;5109355;28;20601;-64
2021/12/18 02:38:11;;;;;;;24.23;14.53;;;;;;;3.21;100.00;100224.00;5110597;28;20209;-64
2021/12/18 02:40:54;;;;;;;26.27;15.53;;;;;;;3.27;100.00;100234.41;5110330;28;20684;-64
2021/12/18 02:43:24;;;;;;;23.63;14.73;;;;;;;3.21;100.00;100224.00;5107856;28;20221;-64
2021/12/18 02:45:53;;;;;;;23.00;15.10;;;;;;;3.18;100.00;100228.41;5106391;28;20211;-64
2021/12/18 02:48:20;;;;;;;22.60;15.37;;;;;;;3.17;100.00;100226.66;5108214;28;20210;-64
2021/12/18 02:50:46;;;;;;;26.00;16.47;;;;;;;3.21;100.00;100228.34;5108035;28;20240;-63
2021/12/18 02:53:14;;;;;;;25.73;15.63;;;;;;;3.20;100.00;100221.41;5105036;28;20215;-64
2021/12/18 02:55:41;;;;;;;26.07;16.03;;;;;;;3.19;100.00;100225.75;5106655;28;20221;-64
2021/12/18 02:58:07;;;;;;;26.07;16.80;;;;;;;3.22;100.00;100236.19;5107903;28;20255;-64
2021/12/18 03:00:33;;;;;;;26.27;16.50;;;;;;;3.24;100.00;100218.75;5107865;28;20214;-64
2021/12/18 03:03:05;;;;;;;24.53;15.87;;;;;;;3.25;100.00;100224.84;5105480;28;20220;-64
2021/12/18 03:05:38;;;;;;;23.60;14.97;;;;;;;3.33;100.00;100229.16;5106411;28;20250;-64
2021/12/18 03:08:12;;;;;;;23.33;15.17;;;;;;;3.30;100.00;100218.72;5108298;28;20747;-64
2021/12/18 03:22:37;;;;;;;24.80;15.17;;;;;;;3.18;100.00;100220.56;5073039;28;20329;-64
2021/12/18 03:24:59;;;;;;;26.20;15.33;;;;;;;3.16;100.00;100219.69;5106202;28;20303;-64
2021/12/18 03:27:27;;;;;;;23.47;14.13;;;;;;;3.23;100.00;100221.38;5103493;28;20206;-64
2021/12/18 03:29:55;;;;;;;24.90;15.47;;;;;;;3.22;100.00;100230.09;5111237;28;20245;-65
2021/12/18 03:32:22;;;;;;;23.97;16.17;;;;;;;3.26;100.00;100221.34;5110202;28;20217;-64
2021/12/18 03:34:49;;;;;;;23.43;15.33;;;;;;;3.20;100.00;100217.06;5106583;28;20210;-64
2021/12/18 03:37:15;;;;;;;24.57;15.30;;;;;;;3.22;100.00;100220.53;5111483;28;20584;-64
2021/12/18 03:39:44;;;;;;;26.27;15.60;;;;;;;3.22;100.00;100219.63;5111536;28;20210;-64
2021/12/18 03:42:11;;;;;;;24.73;15.53;;;;;;;3.16;100.00;100220.56;5112496;28;20596;-64
2021/12/18 03:44:39;;;;;;;24.97;14.53;;;;;;;3.24;100.00;100229.19;5112688;28;20218;-64
2021/12/18 03:47:06;;;;;;;23.77;14.90;;;;;;;3.21;100.00;100225.75;5113298;28;20253;-64
2021/12/18 03:49:33;;;;;;;23.07;14.33;;;;;;;3.21;100.00;100224.00;5113567;28;20230;-64
2021/12/18 03:52:00;;;;;;;25.13;14.97;;;;;;;3.16;100.00;100220.56;5110524;28;20218;-64
2021/12/18 03:54:26;;;;;;;25.47;15.40;;;;;;;3.18;100.00;100223.16;5113313;28;20213;-64
2021/12/18 03:56:53;;;;;;;24.33;14.77;;;;;;;3.22;100.00;100225.75;5113450;27;20218;-64
2021/12/18 03:59:20;;;;;;;24.90;15.43;;;;;;;3.24;100.00;100213.53;5113455;28;20233;-64
2021/12/18 04:01:48;;;;;;;23.17;14.20;;;;;;;3.25;100.00;100209.19;5108726;28;20218;-65
2021/12/18 04:04:15;;;;;;;24.70;14.70;;;;;;;3.14;100.00;100204.03;5112898;28;20216;-64
2021/12/18 04:06:42;;;;;;;22.90;13.80;;;;;;;3.08;100.00;100206.69;5108917;28;20210;-64
2021/12/18 04:09:11;;;;;;;23.57;14.80;;;;;;;3.04;100.00;100207.56;5111541;28;20230;-64
2021/12/18 04:11:37;;;;;;;21.90;13.60;;;;;;;3.00;100.00;100208.47;5109844;28;20249;-64
2021/12/18 04:14:04;;;;;;;22.80;13.27;;;;;;;2.98;100.00;100205.00;5106741;28;20673;-64
2021/12/18 04:16:31;;;;;;;23.73;14.03;;;;;;;3.04;100.00;100206.69;5102100;28;20217;-64
2021/12/18 04:18:59;;;;;;;24.10;14.83;;;;;;;3.02;100.00;100206.72;5110682;28;20225;-65
2021/12/18 04:21:26;;;;;;;24.03;14.20;;;;;;;2.99;100.00;100206.72;5109484;28;20257;-64
2021/12/18 04:23:52;;;;;;;22.50;12.90;;;;;;;3.00;100.00;100205.84;5106631;28;20225;-65
2021/12/18 04:26:19;;;;;;;22.13;13.43;;;;;;;3.05;100.00;100206.69;5108732;28;20210;-64
2021/12/18 04:28:45;;;;;;;20.83;13.43;;;;;;;3.07;100.00;100204.94;5110628;28;20226;-64
2021/12/18 04:31:12;;;;;;;24.90;13.83;;;;;;;3.07;100.00;100209.31;5110341;28;20246;-64
2021/12/18 04:33:38;;;;;;;22.37;13.07;;;;;;;3.08;100.00;100208.41;5106539;28;20822;-64
2021/12/18 04:36:06;;;;;;;22.53;13.73;;;;;;;3.12;100.00;100207.53;5109495;28;20214;-64
2021/12/18 04:38:33;;;;;;;20.87;12.73;;;;;;;3.04;100.00;100197.13;5110476;28;20210;-64
2021/12/18 04:41:00;;;;;;;21.03;13.27;;;;;;;3.12;100.00;100197.94;5110393;27;20207;-64
2021/12/18 04:43:26;;;;;;;23.27;12.83;;;;;;;3.13;100.00;100199.66;5107402;28;20672;-64
2021/12/18 04:45:53;;;;;;;20.00;12.83;;;;;;;3.14;100.00;100190.97;5112202;28;20280;-64
2021/12/18 04:48:19;;;;;;;18.87;11.53;;;;;;;3.12;100.00;100192.69;5112464;28;20214;-64
2021/12/18 04:50:46;;;;;;;20.33;12.13;;;;;;;3.09;100.00;100192.75;5110392;27;20238;-64
2021/12/18 04:53:14;;;;;;;19.77;12.17;;;;;;;3.01;100.00;100189.28;5110321;28;20214;-64
2021/12/18 04:55:40;;;;;;;19.67;11.53;;;;;;;3.02;100.00;100188.44;5112417;28;20210;-64
2021/12/18 04:58:07;;;;;;;19.50;11.47;;;;;;;3.05;100.00;100198.84;5111912;28;20589;-64
2021/12/18 05:00:38;;;;;;;18.90;11.40;;;;;;;2.97;100.00;100195.44;5109881;28;20217;-65
2021/12/18 05:03:07;;;;;;;18.90;11.63;;;;;;;2.92;100.00;100204.16;5105927;28;20210;-64
2021/12/18 05:05:34;;;;;;;18.00;11.30;;;;;;;2.82;100.00;100192.91;5108810;28;20232;-64
2021/12/18 05:08:01;;;;;;;21.07;11.37;;;;;;;2.79;100.00;100198.16;5111832;28;20225;-64
2021/12/18 05:10:29;;;;;;;22.23;11.77;;;;;;;2.89;100.00;100201.59;5109589;28;20241;-64
2021/12/18 05:12:56;;;;;;;17.63;10.57;;;;;;;2.84;100.00;100193.78;5111875;28;20229;-64
2021/12/18 05:15:22;;;;;;;19.40;11.43;;;;;;;2.87;100.00;100196.34;5112030;28;20214;-64
2021/12/18 05:17:49;;;;;;;19.13;10.73;;;;;;;2.85;100.00;100203.34;5111539;28;20210;-64
2021/12/18 05:20:16;;;;;;;19.67;10.77;;;;;;;2.85;100.00;100192.91;5109119;28;20213;-64
2021/12/18 05:22:42;;;;;;;17.73;11.27;;;;;;;2.80;100.00;100189.44;5108803;28;20241;-64
2021/12/18 05:25:10;;;;;;;19.40;11.60;;;;;;;2.85;100.00;100198.13;5111826;28;20210;-64
2021/12/18 05:27:38;;;;;;;21.73;12.13;;;;;;;2.91;100.00;100192.88;5111491;28;20676;-64
2021/12/18 05:30:06;;;;;;;20.27;12.07;;;;;;;2.92;100.00;100194.59;5109955;28;20233;-64
2021/12/18 05:32:33;;;;;;;20.77;11.67;;;;;;;2.92;100.00;100205.03;5111192;28;20217;-64
2021/12/18 05:35:00;;;;;;;19.73;11.47;;;;;;;2.91;100.00;100213.75;5111569;28;20237;-64
2021/12/18 05:37:45;;;;;;;21.23;12.40;;;;;;;2.86;100.00;100205.06;5111359;28;20296;-64
2021/12/18 05:40:12;;;;;;;20.63;11.10;;;;;;;2.86;100.00;100219.84;5110178;28;20215;-64
2021/12/18 05:42:40;;;;;;;20.97;12.17;;;;;;;2.87;100.00;100214.63;5105435;28;20683;-64
2021/12/18 05:45:07;;;;;;;18.33;10.80;;;;;;;2.89;100.00;100209.41;5107563;28;20217;-64
2021/12/18 05:47:34;;;;;;;18.70;11.47;;;;;;;2.96;100.00;100211.09;5108817;28;20218;-64
2021/12/18 05:50:01;;;;;;;17.80;10.90;;;;;;;3.05;100.00;100211.06;5109427;28;20238;-64
2021/12/18 05:52:27;;;;;;;15.63;9.87;;;;;;;3.13;100.00;100214.50;5105384;28;20218;-64
2021/12/18 05:54:54;;;;;;;17.57;10.03;;;;;;;3.14;100.00;100217.09;5108607;28;20592;-64
2021/12/18 05:57:21;;;;;;;17.50;10.17;;;;;;;3.07;100.00;100220.59;5108928;28;20233;-64
2021/12/18 05:59:48;;;;;;;15.20;9.77;;;;;;;3.08;100.00;100221.47;5107995;28;20215;-64
2021/12/18 06:02:15;;;;;;;13.50;8.03;;;;;;;3.11;100.00;100224.09;5105096;28;20211;-64
2021/12/18 06:04:42;;;;;;;12.40;7.93;;;;;;;3.03;100.00;100221.53;5099831;28;20209;-64
2021/12/18 06:07:16;;;;;;;13.23;8.17;;;;;;;2.99;100.00;100227.63;5102581;28;20208;-64
2021/12/18 06:09:42;;;;;;;13.00;7.90;;;;;;;2.96;100.00;100217.22;5109814;28;20210;-64
2021/12/18 06:12:10;;;;;;;11.83;8.23;;;;;;;3.01;100.00;100225.88;5103929;28;20221;-64
2021/12/18 06:14:36;;;;;;;13.03;8.60;;;;;;;3.02;100.00;100221.53;5106086;28;20221;-64
2021/12/18 06:17:04;;;;;;;12.67;8.33;;;;;;;2.97;100.00;100218.94;5108594;27;20214;-64
2021/12/18 06:19:31;;;;;;;12.20;8.13;;;;;;;2.94;100.00;100229.38;5109746;28;20723;-64
2021/12/18 06:21:57;;;;;;;12.80;8.23;;;;;;;2.95;100.00;100220.69;5104546;28;20731;-64
2021/12/18 06:24:25;;;;;;;13.60;8.60;;;;;;;2.92;100.00;100225.94;5108420;28;20216;-64
2021/12/18 06:26:51;;;;;;;13.07;8.40;;;;;;;2.88;100.00;100224.19;5108050;28;20222;-64
2021/12/18 06:29:17;;;;;;;15.23;8.40;;;;;;;2.89;100.00;100225.09;5107344;28;20678;-64
2021/12/18 06:31:44;;;;;;;13.20;8.27;;;;;;;2.91;100.00;100223.31;5104355;28;20241;-64
2021/12/18 06:34:12;;;;;;;11.47;8.07;;;;;;;2.89;100.00;100223.31;5099377;28;20249;-64
2021/12/18 06:36:39;;;;;;;14.37;8.70;;;;;;;2.90;100.00;100226.81;5106652;28;20210;-64
2021/12/18 06:39:06;;;;;;;13.70;8.00;;;;;;;2.86;100.00;100223.34;5107211;28;20214;-64
2021/12/18 06:41:32;;;;;;;13.47;8.37;;;;;;;2.91;100.00;100223.31;5104490;28;20221;-64
2021/12/18 06:43:59;;;;;;;11.87;7.93;;;;;;;2.86;100.00;100223.34;5107771;28;20214;-64
2021/12/18 06:46:25;;;;;;;12.63;8.57;;;;;;;2.79;100.00;100218.16;5108067;28;20242;-65
2021/12/18 06:48:52;;;;;;;13.20;8.60;;;;;;;2.78;100.00;100214.69;5108154;28;20217;-64
2021/12/18 06:51:20;;;;;;;12.27;8.20;;;;;;;2.84;100.00;100216.41;5104431;28;20238;-64
2021/12/18 06:53:47;;;;;;;11.43;7.93;;;;;;;2.89;100.00;100220.72;5107887;28;20225;-64
2021/12/18 06:56:14;;;;;;;13.87;8.80;;;;;;;2.93;100.00;100219.81;5107922;28;20695;-64
2021/12/18 06:58:41;;;;;;;12.90;8.03;;;;;;;2.95;100.00;100215.44;5107906;28;20214;-64
2021/12/18 07:01:07;;;;;;;14.40;8.60;;;;;;;2.85;100.00;100219.00;5109221;28;20218;-64
2021/12/18 07:03:34;;;;;;;11.50;7.60;;;;;;;2.89;100.00;100225.94;5112856;28;20209;-64
2021/12/18 07:06:01;;;;;;;13.87;8.10;;;;;;;2.90;100.00;100218.97;5114240;28;20220;-64
2021/12/18 07:08:29;;;;;;;12.07;7.63;;;;;;;2.95;100.00;100225.06;5112446;27;20214;-64
2021/12/18 07:10:55;;;;;;;13.37;8.40;;;;;;;2.94;100.00;100233.78;5113957;28;20233;-64
2021/12/18 07:13:22;;;;;;;12.77;8.27;;;;;;;2.98;100.00;100230.25;5114204;28;20221;-64
2021/12/18 07:15:49;;;;;;;11.63;7.47;;;;;;;2.98;100.00;100230.25;5114117;28;20264;-64
2021/12/18 07:18:16;;;;;;;12.23;7.87;;;;;;;2.98;100.00;100238.97;5112502;28;20210;-64
2021/12/18 07:20:42;;;;;;;13.50;8.00;;;;;;;3.01;100.00;100235.47;5113731;28;20221;-64
2021/12/18 07:23:09;;;;;;;13.73;7.87;;;;;;;3.05;100.00;100245.03;5113886;27;20229;-64
2021/12/18 07:25:37;;;;;;;14.90;8.57;;;;;;;3.03;100.00;100245.03;5113943;28;20241;-64
2021/12/18 07:28:03;;;;;;;10.93;6.77;;;;;;;3.06;100.00;100250.22;5112429;27;20225;-64
2021/12/18 07:30:30;;;;;;;13.13;7.57;;;;;;;3.07;100.00;100256.31;5108476;28;20238;-64
2021/12/18 07:32:57;;;;;;;13.97;8.33;;;;;;;3.06;100.00;100258.06;5109413;28;20207;-64
2021/12/18 07:35:23;;;;;;;12.23;7.70;;;;;;;3.05;100.00;100253.72;5111325;28;20683;-65
2021/12/18 07:37:50;;;;;;;12.27;7.47;;;;;;;3.07;100.00;100256.31;5111356;28;20225;-64
2021/12/18 07:40:17;;;;;;;11.83;7.97;;;;;;;3.09;100.00;100252.81;5109157;27;20222;-64
2021/12/18 07:42:45;;;;;;;12.27;8.03;;;;;;;3.20;100.00;100258.88;5108758;28;20688;-64
2021/12/18 07:45:12;;;;;;;12.40;7.70;;;;;;;3.25;100.00;100262.28;5111446;28;20217;-64
2021/12/18 07:47:39;;;;;;;14.83;8.17;;;;;;;3.30;100.00;100259.66;5111077;28;20210;-64
2021/12/18 07:50:12;;;;;;;11.53;7.43;;;;;;;3.24;100.00;100265.78;5108736;28;20210;-64
2021/12/18 07:52:39;;;;;;;12.20;7.63;;;;;;;3.29;100.00;100263.13;5109296;28;20682;-64
2021/12/18 07:55:06;;;;;;;13.40;7.97;;;;;;;3.26;100.00;100258.81;5109428;28;20292;-64
2021/12/18 07:57:33;;;;;;;13.43;8.03;;;;;;;3.30;100.00;100260.53;5111234;28;20579;-64
2021/12/18 08:00:00;;;;;;;12.37;8.07;;;;;;;3.28;100.00;100257.06;5108287;28;20218;-64
2021/12/18 08:02:27;;;;;;;11.80;7.70;;;;;;;3.30;100.00;100249.22;5109194;28;20211;-63
2021/12/18 08:04:53;;;;;;;10.70;7.30;;;;;;;3.33;100.00;100255.28;5111026;28;20211;-64
2021/12/18 08:07:20;;;;;;;13.67;8.03;;;;;;;3.40;100.00;100250.88;5103707;28;20210;-64
2021/12/18 08:09:46;;;;;;;12.50;7.57;;;;;;;3.44;100.00;100261.31;5113457;28;20227;-64
2021/12/18 08:12:13;;;;;;;12.90;8.67;;;;;;;3.51;100.00;100259.50;5107857;28;20292;-64
2021/12/18 08:14:39;;;;;;;10.57;7.10;;;;;;;3.52;100.00;100262.13;5110548;28;20215;-64
2021/12/18 08:17:07;;;;;;;12.40;8.13;;;;;;;3.50;100.00;100261.28;5110687;28;20213;-64
2021/12/18 08:19:34;;;;;;;11.07;7.30;;;;;;;3.58;100.00;100254.22;5108396;28;20210;-64
2021/12/18 08:22:00;;;;;;;13.17;8.03;;;;;;;3.64;100.00;100245.44;5105754;28;20309;-64
2021/12/18 08:24:27;;;;;;;11.83;7.97;;;;;;;3.69;100.00;100259.38;5110609;28;20580;-64
2021/12/18 08:26:54;;;;;;;13.40;8.23;;;;;;;3.71;100.00;100248.00;5110464;28;20210;-64
2021/12/18 08:29:21;;;;;;;12.57;7.83;;;;;;;3.77;100.00;100250.56;5108897;27;20211;-64
2021/12/18 08:31:47;;;;;;;11.90;7.73;;;;;;;3.78;100.00;100254.06;5107198;28;20245;-64
2021/12/18 08:34:15;;;;;;;12.70;7.97;;;;;;;3.81;100.00;100254.91;5110228;28;20215;-64
2021/12/18 08:36:42;;;;;;;13.07;8.37;;;;;;;3.80;100.00;100258.38;5110137;28;20671;-64
2021/12/18 08:39:08;;;;;;;12.13;7.57;;;;;;;3.82;100.00;100256.63;5109142;28;20210;-64
2021/12/18 08:41:35;;;;;;;12.63;8.07;;;;;;;3.82;100.00;100259.25;5106923;28;20551;-64
2021/12/18 08:44:02;;;;;;;12.83;8.17;;;;;;;3.86;100.00;100257.47;5111585;27;20210;-64
2021/12/18 08:46:28;;;;;;;11.87;7.50;;;;;;;3.90;100.00;100249.59;5108219;28;20210;-64
2021/12/18 08:48:55;;;;;;;11.77;7.43;;;;;;;3.97;100.00;100251.25;5109408;28;20221;-64
2021/12/18 08:51:23;;;;;;;13.33;8.40;;;;;;;4.04;100.00;100245.06;5106072;28;20621;-64
2021/12/18 08:53:49;;;;;;;11.80;7.97;;;;;;;4.05;100.00;100249.47;5101287;28;20240;-64
2021/12/18 08:56:16;;;;;;;12.30;7.73;;;;;;;4.06;100.00;100250.31;5110142;27;20206;-64
2021/12/18 08:58:42;;;;;;;12.20;7.70;;;;;;;4.07;100.00;100249.41;5109498;28;20206;-64
2021/12/18 09:01:09;;;;;;;12.00;7.70;;;;;;;4.06;100.00;100250.31;5105934;28;20706;-64
2021/12/18 09:03:35;;;;;;;15.17;8.77;;;;;;;4.05;100.00;100238.09;5109563;28;20214;-64
2021/12/18 09:06:03;;;;;;;11.07;7.40;;;;;;;4.12;100.00;100247.63;5109809;28;20660;-64
2021/12/18 09:08:30;;;;;;;13.07;8.37;;;;;;;4.05;100.00;100251.19;5109437;28;20220;-64
2021/12/18 09:10:57;;;;;;;12.97;8.03;;;;;;;4.10;100.00;100247.63;5111786;27;20241;-64
2021/12/18 09:13:24;;;;;;;11.50;7.50;;;;;;;4.09;100.00;100245.91;5110360;28;20207;-64
2021/12/18 09:15:50;;;;;;;11.70;7.30;;;;;;;4.16;100.00;100242.34;5112096;27;20214;-64
2021/12/18 09:18:16;;;;;;;15.07;7.53;;;;;;;4.21;100.00;100244.94;5109694;28;20207;-64
2021/12/18 09:20:44;;;;;;;13.50;8.10;;;;;;;4.25;100.00;100241.38;5111459;28;20695;-64
2021/12/18 09:23:13;;;;;;;11.47;7.90;;;;;;;4.14;100.00;100238.88;5108252;28;20254;-64
2021/12/18 09:25:41;;;;;;;12.67;8.43;;;;;;;4.27;100.00;100239.63;5109619;28;20246;-64
2021/12/18 09:28:07;;;;;;;12.40;7.73;;;;;;;4.29;100.00;100243.94;5108097;28;20595;-64
2021/12/18 09:30:34;;;;;;;14.63;8.60;;;;;;;4.29;100.00;100238.69;5105555;28;20214;-65
2021/12/18 09:33:01;;;;;;;15.23;8.57;;;;;;;4.22;100.00;100237.03;5105553;28;20209;-64
2021/12/18 09:35:28;;;;;;;12.43;7.80;;;;;;;4.26;100.00;100237.88;5101844;28;20234;-64
2021/12/18 09:37:55;;;;;;;11.80;7.33;;;;;;;4.27;100.00;100237.84;5114303;28;20213;-64
2021/12/18 09:40:22;;;;;;;12.17;7.60;;;;;;;4.29;100.00;100236.09;5112660;28;20223;-63
2021/12/18 09:42:50;;;;;;;13.17;8.17;;;;;;;4.21;100.00;100235.31;5114142;28;20211;-63
2021/12/18 09:45:17;;;;;;;12.37;7.57;;;;;;;4.16;100.00;100229.25;5114195;28;20210;-63
2021/12/18 09:47:46;;;;;;;10.40;6.47;;;;;;;4.17;100.00;100225.75;5114154;28;20221;-64
2021/12/18 09:50:14;;;;;;;11.13;6.73;;;;;;;4.12;100.00;100229.31;5114287;28;20210;-63
2021/12/18 09:52:41;;;;;;;12.00;7.33;;;;;;;4.07;100.00;100224.13;5113787;28;20255;-63
2021/12/18 09:55:09;;;;;;;10.37;6.90;;;;;;;4.00;100.00;100224.19;5113966;28;20209;-63
2021/12/18 09:57:36;;;;;;;13.27;7.47;;;;;;;3.95;100.00;100231.22;5113613;28;20221;-64
2021/12/18 10:00:06;;;;;;;10.30;6.67;;;;;;;3.92;100.00;100226.03;5113608;28;20211;-64
2021/12/18 10:02:32;;;;;;;11.67;7.43;;;;;;;3.97;100.00;100225.09;5113569;28;20214;-64
2021/12/18 10:04:59;;;;;;;12.27;7.83;;;;;;;3.99;100.00;100214.63;5112134;28;20234;-64
2021/12/18 10:07:27;;;;;;;11.83;7.60;;;;;;;4.01;100.00;100211.09;5111982;28;20210;-64
2021/12/18 10:09:56;;;;;;;12.43;7.80;;;;;;;3.97;100.00;100204.16;5113915;28;20284;-63
2021/12/18 10:12:25;;;;;;;13.23;8.03;;;;;;;3.98;100.00;100205.88;5109812;28;20248;-64
2021/12/18 10:14:55;;;;;;;14.43;7.70;;;;;;;4.04;100.00;100200.59;5108891;28;20217;-64
2021/12/18 10:17:27;;;;;;;10.77;7.03;;;;;;;4.03;100.00;100198.88;5108902;28;20587;-64
2021/12/18 10:19:57;;;;;;;12.33;7.60;;;;;;;4.06;100.00;100198.84;5110068;28;20211;-64
2021/12/18 10:22:23;;;;;;;11.10;6.83;;;;;;;4.12;100.00;100198.78;5111806;28;20352;-64
2021/12/18 10:25:05;;;;;;;11.10;7.17;;;;;;;4.11;100.00;100197.06;5112662;28;20217;-64
2021/12/18 10:27:31;;;;;;;11.97;7.70;;;;;;;4.06;100.00;100198.84;5113347;28;20207;-64
2021/12/18 10:30:11;;;;;;;12.43;7.93;;;;;;;4.12;100.00;100204.03;5112550;27;20224;-63
2021/12/18 10:32:39;;;;;;;10.93;7.47;;;;;;;4.10;100.00;100200.53;5111498;28;20256;-64
2021/12/18 10:35:06;;;;;;;11.87;7.40;;;;;;;4.07;100.00;100191.84;5113214;28;20581;-64
2021/12/18 10:37:34;;;;;;;13.30;8.23;;;;;;;4.12;100.00;100193.56;5113231;28;20240;-63
2021/12/18 10:40:06;;;;;;;12.60;7.63;;;;;;;4.15;100.00;100195.28;5106367;28;20214;-63
2021/12/18 10:42:35;;;;;;;14.27;8.33;;;;;;;4.20;100.00;100190.81;5113386;28;20214;-64
2021/12/18 10:45:10;;;;;;;14.57;9.07;;;;;;;4.26;100.00;100183.78;5113051;28;20698;-64
2021/12/18 10:48:00;;;;;;;13.17;8.73;;;;;;;4.29;100.00;100186.34;5114933;28;20214;-64
2021/12/18 10:50:34;;;;;;;13.17;8.80;;;;;;;4.31;100.00;100184.59;5112902;28;20213;-64
2021/12/18 10:53:05;;;;;;;14.27;9.03;;;;;;;4.34;100.00;100184.56;5115056;28;20235;-64
2021/12/18 10:55:35;;;;;;;14.67;8.87;;;;;;;4.41;100.00;100183.59;5113229;28;20225;-64
2021/12/18 10:58:04;;;;;;;13.17;8.43;;;;;;;4.45;100.00;100185.28;5113115;28;20225;-64
2021/12/18 11:00:37;;;;;;;15.17;9.27;;;;;;;4.47;100.00;100170.41;5112969;28;20218;-64
2021/12/18 11:03:22;;;;;;;13.47;7.90;;;;;;;4.53;100.00;100175.56;5115020;28;20210;-64
2021/12/18 11:06:10;;;;;;;15.53;9.03;;;;;;;4.54;100.00;100169.47;5108157;28;20580;-64
2021/12/18 11:08:52;;;;;;;14.87;9.33;;;;;;;4.56;100.00;100164.19;5108905;28;20699;-64
2021/12/18 11:14:05;;;;;;;14.00;8.47;;;;;;;4.60;100.00;100155.44;5112834;28;20222;-64
2021/12/18 11:16:35;;;;;;;14.07;8.43;;;;;;;4.69;100.00;100150.03;5114643;28;20562;-64
2021/12/18 11:19:04;;;;;;;13.97;8.50;;;;;;;4.70;100.00;100152.66;5112971;28;20623;-64
2021/12/18 11:21:31;;;;;;;11.77;7.53;;;;;;;4.69;100.00;100150.03;5112573;28;20219;-63
2021/12/18 11:24:04;;;;;;;13.23;7.90;;;;;;;4.78;100.00;100145.56;5111081;28;20586;-64
2021/12/18 11:26:36;;;;;;;13.87;8.43;;;;;;;4.88;100.00;100141.91;5112693;28;20669;-64
2021/12/18 11:29:05;;;;;;;12.70;8.27;;;;;;;4.81;99.93;100145.50;5112672;28;20305;-63
2021/12/18 11:31:32;;;;;;;13.87;8.40;;;;;;;4.76;100.00;100142.09;5112626;28;20692;-64
2021/12/18 11:34:01;;;;;;;12.80;8.37;;;;;;;4.80;100.00;100141.16;5103707;28;20210;-64
2021/12/18 11:36:29;;;;;;;12.17;8.13;;;;;;;4.81;100.00;100140.28;5112606;28;20219;-64
2021/12/18 11:38:56;;;;;;;11.53;7.50;;;;;;;4.86;100.00;100133.22;5112674;28;20222;-64
2021/12/18 11:41:23;;;;;;;10.80;7.30;;;;;;;4.93;99.66;100133.97;5112564;28;20220;-64
2021/12/18 11:43:49;;;;;;;12.23;7.90;;;;;;;4.87;99.89;100132.31;5110334;28;20207;-64
2021/12/18 11:46:32;;;;;;;13.23;8.27;;;;;;;4.73;100.00;100126.44;5108222;28;20587;-64
2021/12/18 11:49:00;;;;;;;11.53;7.87;;;;;;;4.76;100.00;100121.13;5110576;28;21918;-64
2021/12/18 11:51:29;;;;;;;11.63;7.63;;;;;;;4.84;100.00;100116.63;5114708;28;20284;-64